Time;durP1;ratioP1;P1;durP2;ratioP2;P2;SDS_P1;SDS_P2;PMS_P1;PMS_P2;Temp;Humidity;BMP_temperature;BMP_pressure;BME280_temperature;BME280_humidity;BME280_pressure;Samples;Min_cycle;Max_cycle;Signal;HPM_P1;HPM_P2
2022/10/20 00:00:07;;;;;;;;;;;19.20;75.40;;;;;;5048597;27;90009;-55
2022/10/20 00:02:32;;;;;;;;;;;19.20;75.40;;;;;;5040717;27;91778;-56
2022/10/20 00:04:58;;;;;;;;;;;19.20;75.30;;;;;;5044206;27;95720;-54
2022/10/20 00:07:23;;;;;;;;;;;19.20;75.40;;;;;;5020439;27;93296;-55
2022/10/20 00:09:49;;;;;;;;;;;19.20;75.30;;;;;;5032577;27;90489;-56
2022/10/20 00:12:14;;;;;;;;;;;19.20;75.40;;;;;;5037817;27;89491;-57
2022/10/20 00:14:40;;;;;;;;;;;19.10;75.30;;;;;;5037564;27;89928;-52
2022/10/20 00:17:06;;;;;;;;;;;19.10;75.30;;;;;;5027498;27;90278;-57
2022/10/20 00:19:31;;;;;;;;;;;19.20;76.10;;;;;;5040541;27;91498;-55
2022/10/20 00:21:57;;;;;;;;;;;19.20;75.30;;;;;;5035974;27;90840;-57
2022/10/20 00:24:23;;;;;;;;;;;19.20;75.30;;;;;;5041696;27;90950;-58
2022/10/20 00:26:48;;;;;;;;;;;19.10;75.20;;;;;;5052152;27;90079;-55
2022/10/20 00:29:14;;;;;;;;;;;19.10;75.20;;;;;;5050476;27;90988;-53
2022/10/20 00:31:39;;;;;;;;;;;19.10;75.10;;;;;;5054879;27;89901;-54
2022/10/20 00:34:05;;;;;;;;;;;19.10;75.10;;;;;;5044465;27;89461;-55
2022/10/20 00:36:30;;;;;;;;;;;19.10;75.10;;;;;;5043678;27;89339;-54
2022/10/20 00:38:57;;;;;;;;;;;19.10;75.10;;;;;;5057239;27;89962;-55
2022/10/20 00:41:23;;;;;;;;;;;19.10;75.20;;;;;;5043249;27;90939;-55
2022/10/20 00:43:53;;;;;;;;;;;19.10;75.10;;;;;;5037569;27;91585;-58
2022/10/20 00:46:20;;;;;;;;;;;19.10;75.20;;;;;;5039259;27;89876;-56
2022/10/20 00:48:47;;;;;;;;;;;19.10;75.10;;;;;;5027792;27;90480;-57
2022/10/20 00:51:15;;;;;;;;;;;19.10;75.10;;;;;;5038493;27;92332;-54
2022/10/20 00:53:41;;;;;;;;;;;19.10;75.20;;;;;;5033878;27;90036;-55
2022/10/20 00:56:07;;;;;;;;;;;19.10;75.10;;;;;;5042481;27;91774;-56
2022/10/20 00:58:33;;;;;;;;;;;19.10;75.30;;;;;;5030061;27;91117;-53
2022/10/20 01:00:59;;;;;;;;;;;19.10;75.10;;;;;;5039401;27;90395;-53
2022/10/20 01:03:56;;;;;;;;;;;19.10;75.30;;;;;;5031484;27;90184;-53
2022/10/20 01:06:22;;;;;;;;;;;19.10;75.30;;;;;;4990557;27;90674;-51
2022/10/20 01:08:52;;;;;;;;;;;19.10;75.20;;;;;;5034612;27;93785;-55
2022/10/20 01:11:36;;;;;;;;;;;19.10;75.10;;;;;;5039952;27;95086;-56
2022/10/20 01:14:05;;;;;;;;;;;19.00;75.20;;;;;;5047962;27;95435;-55
2022/10/20 01:16:38;;;;;;;;;;;19.00;75.10;;;;;;5053958;27;89812;-52
2022/10/20 01:19:06;;;;;;;;;;;19.10;75.10;;;;;;5038647;27;93156;-55
2022/10/20 01:21:50;;;;;;;;;;;19.00;75.10;;;;;;5039289;27;91298;-51
2022/10/20 01:24:18;;;;;;;;;;;19.10;75.20;;;;;;5048087;27;92954;-55
2022/10/20 01:27:03;;;;;;;;;;;19.00;75.20;;;;;;5044285;27;92005;-54
2022/10/20 01:29:42;;;;;;;;;;;19.00;75.10;;;;;;5048344;27;92440;-55
2022/10/20 01:32:11;;;;;;;;;;;19.00;75.10;;;;;;5046694;27;90405;-61
2022/10/20 01:34:36;;;;;;;;;;;19.00;75.00;;;;;;5044335;27;91901;-61
2022/10/20 01:37:09;;;;;;;;;;;19.00;75.00;;;;;;5056805;27;90008;-61
2022/10/20 01:39:48;;;;;;;;;;;19.00;75.00;;;;;;5046349;27;89629;-61
2022/10/20 01:42:17;;;;;;;;;;;19.00;74.90;;;;;;5044698;27;90659;-62
2022/10/20 01:44:44;;;;;;;;;;;19.00;75.00;;;;;;5043667;27;89896;-62
2022/10/20 01:47:10;;;;;;;;;;;19.00;75.00;;;;;;5057207;27;89861;-61
2022/10/20 01:49:36;;;;;;;;;;;19.00;75.00;;;;;;5041911;27;93707;-62
2022/10/20 01:52:01;;;;;;;;;;;19.00;74.90;;;;;;5048240;27;91893;-61
2022/10/20 01:54:28;;;;;;;;;;;19.00;75.00;;;;;;5047379;27;90028;-61
2022/10/20 01:56:53;;;;;;;;;;;19.00;75.00;;;;;;5048048;27;90695;-61
2022/10/20 01:59:24;;;;;;;;;;;19.00;75.00;;;;;;5045287;27;91929;-62
2022/10/20 02:01:53;;;;;;;;;;;19.00;75.00;;;;;;5052109;27;94528;-61
2022/10/20 02:04:23;;;;;;;;;;;19.00;74.90;;;;;;5049829;27;91049;-60
2022/10/20 02:07:03;;;;;;;;;;;19.00;74.90;;;;;;5039598;27;91109;-61
2022/10/20 02:09:28;;;;;;;;;;;19.00;74.90;;;;;;5044920;27;91243;-61
2022/10/20 02:12:00;;;;;;;;;;;19.00;75.70;;;;;;5040851;27;92068;-61
2022/10/20 02:14:25;;;;;;;;;;;19.00;75.00;;;;;;5037408;27;90905;-61
2022/10/20 02:16:53;;;;;;;;;;;19.00;74.90;;;;;;5044661;27;90111;-61
2022/10/20 02:19:23;;;;;;;;;;;19.00;75.10;;;;;;5044365;27;91830;-61
2022/10/20 02:21:50;;;;;;;;;;;19.00;74.90;;;;;;5038857;27;90763;-61
2022/10/20 02:24:16;;;;;;;;;;;19.00;75.00;;;;;;5042436;27;91517;-61
2022/10/20 02:26:42;;;;;;;;;;;18.90;74.80;;;;;;5040260;27;90125;-58
2022/10/20 02:29:14;;;;;;;;;;;18.90;74.80;;;;;;5042820;27;91143;-60
2022/10/20 02:31:40;;;;;;;;;;;18.90;74.90;;;;;;5034471;27;90595;-60
2022/10/20 02:34:06;;;;;;;;;;;18.90;74.90;;;;;;5030140;27;96642;-60
2022/10/20 02:36:36;;;;;;;;;;;18.90;74.90;;;;;;5025151;27;90257;-60
2022/10/20 02:39:01;;;;;;;;;;;18.90;74.90;;;;;;5042276;27;90485;-58
2022/10/20 02:41:28;;;;;;;;;;;18.90;74.80;;;;;;5038887;27;89650;-57
2022/10/20 02:43:53;;;;;;;;;;;18.90;74.80;;;;;;5040311;27;91043;-61
2022/10/20 02:46:19;;;;;;;;;;;18.90;74.90;;;;;;5048965;27;89985;-62
2022/10/20 02:48:44;;;;;;;;;;;18.90;74.80;;;;;;5038096;27;91624;-61
2022/10/20 02:51:10;;;;;;;;;;;18.90;74.80;;;;;;5043274;27;92412;-60
2022/10/20 02:53:36;;;;;;;;;;;18.90;74.80;;;;;;5046302;27;89581;-61
2022/10/20 02:56:02;;;;;;;;;;;18.90;74.80;;;;;;5040816;27;90460;-61
2022/10/20 02:58:27;;;;;;;;;;;18.80;74.80;;;;;;5033969;27;91895;-60
2022/10/20 03:00:53;;;;;;;;;;;18.80;74.80;;;;;;5039394;27;89875;-60
2022/10/20 03:03:19;;;;;;;;;;;18.80;74.70;;;;;;5046914;27;91523;-60
2022/10/20 03:05:45;;;;;;;;;;;18.90;74.80;;;;;;5042187;27;91963;-62
2022/10/20 03:08:11;;;;;;;;;;;18.80;74.70;;;;;;5040521;27;94585;-61
2022/10/20 03:10:37;;;;;;;;;;;18.80;74.80;;;;;;5048781;27;89608;-62
2022/10/20 03:13:03;;;;;;;;;;;18.80;74.80;;;;;;5048748;27;90609;-60
2022/10/20 03:15:29;;;;;;;;;;;18.80;74.70;;;;;;5045710;27;90250;-59
2022/10/20 03:17:54;;;;;;;;;;;18.80;74.70;;;;;;5040907;27;90759;-61
2022/10/20 03:20:20;;;;;;;;;;;18.80;74.60;;;;;;5045586;27;89952;-56
2022/10/20 03:22:46;;;;;;;;;;;18.80;74.60;;;;;;5030212;27;90081;-60
2022/10/20 03:25:11;;;;;;;;;;;18.80;74.60;;;;;;5046425;27;89877;-58
2022/10/20 03:27:37;;;;;;;;;;;18.90;74.80;;;;;;5046130;27;91207;-62
2022/10/20 03:30:02;;;;;;;;;;;18.80;74.60;;;;;;5039186;27;91527;-61
2022/10/20 03:32:28;;;;;;;;;;;18.80;74.70;;;;;;5040666;27;90540;-60
2022/10/20 03:34:53;;;;;;;;;;;18.80;74.70;;;;;;5042117;27;89977;-60
2022/10/20 03:37:19;;;;;;;;;;;18.80;74.70;;;;;;5041058;27;91857;-61
2022/10/20 03:39:44;;;;;;;;;;;18.80;74.70;;;;;;5048795;27;90157;-61
2022/10/20 03:42:10;;;;;;;;;;;18.80;74.70;;;;;;5048103;27;90107;-60
2022/10/20 03:44:35;;;;;;;;;;;18.80;74.70;;;;;;5045222;27;91977;-60
2022/10/20 03:47:01;;;;;;;;;;;18.80;74.60;;;;;;5033664;27;91048;-61
2022/10/20 03:49:26;;;;;;;;;;;18.70;75.30;;;;;;5043171;27;89759;-61
2022/10/20 03:51:52;;;;;;;;;;;18.70;74.60;;;;;;5039450;27;89806;-61
2022/10/20 03:54:18;;;;;;;;;;;18.80;74.60;;;;;;5043381;27;88774;-58
2022/10/20 03:56:43;;;;;;;;;;;18.70;74.60;;;;;;5049743;27;89834;-60
2022/10/20 03:59:10;;;;;;;;;;;18.80;74.50;;;;;;5045782;27;89490;-61
2022/10/20 04:01:35;;;;;;;;;;;18.80;74.60;;;;;;5042136;27;94986;-62
2022/10/20 04:04:01;;;;;;;;;;;18.80;74.60;;;;;;5050103;27;89964;-62
2022/10/20 04:06:26;;;;;;;;;;;18.80;74.60;;;;;;5039088;27;90186;-61
2022/10/20 04:08:52;;;;;;;;;;;18.70;74.60;;;;;;5035589;27;92424;-62
2022/10/20 04:11:17;;;;;;;;;;;18.70;74.50;;;;;;5033850;27;89868;-59
2022/10/20 04:13:43;;;;;;;;;;;18.70;74.50;;;;;;5049738;27;92252;-60
2022/10/20 04:16:08;;;;;;;;;;;18.70;74.50;;;;;;5044351;27;89984;-61
2022/10/20 04:18:34;;;;;;;;;;;18.70;74.50;;;;;;5040142;27;89284;-60
2022/10/20 04:20:59;;;;;;;;;;;18.70;74.50;;;;;;5042216;27;91444;-59
2022/10/20 04:23:25;;;;;;;;;;;18.80;74.50;;;;;;5035238;27;91104;-62
2022/10/20 04:25:50;;;;;;;;;;;18.70;74.50;;;;;;5043449;27;93912;-61
2022/10/20 04:28:17;;;;;;;;;;;18.70;74.50;;;;;;5036512;27;90818;-61
2022/10/20 04:30:42;;;;;;;;;;;18.80;74.60;;;;;;5044176;27;89971;-61
2022/10/20 04:33:08;;;;;;;;;;;18.80;74.50;;;;;;5045474;27;92170;-61
2022/10/20 04:35:34;;;;;;;;;;;18.80;74.50;;;;;;5045196;27;90917;-61
2022/10/20 04:37:59;;;;;;;;;;;18.70;74.50;;;;;;5037926;27;90069;-60
2022/10/20 04:40:25;;;;;;;;;;;18.70;74.40;;;;;;5041319;27;96513;-61
2022/10/20 04:42:50;;;;;;;;;;;18.70;74.50;;;;;;5026745;27;89379;-62
2022/10/20 04:45:16;;;;;;;;;;;18.70;74.50;;;;;;5036801;27;89730;-61
2022/10/20 04:47:41;;;;;;;;;;;18.70;74.40;;;;;;5042592;27;92330;-61
2022/10/20 04:50:07;;;;;;;;;;;18.70;74.50;;;;;;5037066;27;91277;-61
2022/10/20 04:52:33;;;;;;;;;;;18.70;74.40;;;;;;5042071;27;91425;-60
2022/10/20 04:54:58;;;;;;;;;;;18.70;74.40;;;;;;5035492;27;89703;-60
2022/10/20 04:57:24;;;;;;;;;;;18.70;74.50;;;;;;5029386;27;97207;-61
2022/10/20 04:59:49;;;;;;;;;;;18.70;74.40;;;;;;5031297;27;90332;-61
2022/10/20 05:02:15;;;;;;;;;;;18.70;74.40;;;;;;5051075;27;90818;-59
2022/10/20 05:04:40;;;;;;;;;;;18.70;74.40;;;;;;5042147;27;90774;-60
2022/10/20 05:07:06;;;;;;;;;;;18.70;74.40;;;;;;5045297;27;89694;-61
2022/10/20 05:09:32;;;;;;;;;;;18.70;74.50;;;;;;5049861;27;91114;-61
2022/10/20 05:11:58;;;;;;;;;;;18.70;74.40;;;;;;5035376;27;91538;-61
2022/10/20 05:14:23;;;;;;;;;;;18.70;74.40;;;;;;5041204;27;91717;-61
2022/10/20 05:16:49;;;;;;;;;;;18.70;74.40;;;;;;5049831;27;93537;-62
2022/10/20 05:19:14;;;;;;;;;;;18.70;74.30;;;;;;5044236;27;90044;-63
2022/10/20 05:21:40;;;;;;;;;;;18.80;74.30;;;;;;5046107;27;89208;-62
2022/10/20 05:24:05;;;;;;;;;;;18.70;74.50;;;;;;5035359;27;90177;-60
2022/10/20 05:26:33;;;;;;;;;;;18.80;74.50;;;;;;5046228;27;93434;-61
2022/10/20 05:29:00;;;;;;;;;;;18.80;74.50;;;;;;5039364;27;89958;-59
2022/10/20 05:31:26;;;;;;;;;;;18.80;74.50;;;;;;5033754;27;89322;-60
2022/10/20 05:33:55;;;;;;;;;;;18.80;74.50;;;;;;5024362;27;90082;-58
2022/10/20 05:36:21;;;;;;;;;;;18.70;74.50;;;;;;5038831;27;90384;-63
2022/10/20 05:38:47;;;;;;;;;;;18.70;74.60;;;;;;5040145;27;91163;-62
2022/10/20 05:41:15;;;;;;;;;;;18.80;74.60;;;;;;5042966;27;90497;-61
2022/10/20 05:43:40;;;;;;;;;;;18.80;75.00;;;;;;5029339;27;89944;-61
2022/10/20 05:46:09;;;;;;;;;;;18.80;75.00;;;;;;5058018;27;89340;-61
2022/10/20 05:48:35;;;;;;;;;;;18.80;75.00;;;;;;5037897;27;91116;-62
2022/10/20 05:51:11;;;;;;;;;;;18.70;74.90;;;;;;5024660;27;89959;-62
2022/10/20 05:53:38;;;;;;;;;;;18.70;74.90;;;;;;5027462;27;90008;-54
2022/10/20 05:56:08;;;;;;;;;;;18.70;75.00;;;;;;5035420;27;89424;-61
2022/10/20 05:58:34;;;;;;;;;;;18.80;75.30;;;;;;5044040;27;90065;-54
2022/10/20 06:01:03;;;;;;;;;;;18.80;75.40;;;;;;5031766;27;90105;-55
2022/10/20 06:03:29;;;;;;;;;;;18.80;75.60;;;;;;5032775;27;91727;-57
2022/10/20 06:05:58;;;;;;;;;;;18.90;75.90;;;;;;5044626;27;89828;-54
2022/10/20 06:08:24;;;;;;;;;;;18.90;76.20;;;;;;5028090;27;90519;-60
2022/10/20 06:10:49;;;;;;;;;;;18.90;76.30;;;;;;5031444;27;92258;-58
2022/10/20 06:13:15;;;;;;;;;;;19.00;76.00;;;;;;5014490;27;91304;-59
2022/10/20 06:15:40;;;;;;;;;;;19.00;75.80;;;;;;5045243;27;90826;-61
2022/10/20 06:18:06;;;;;;;;;;;19.00;76.20;;;;;;5042280;27;91050;-60
2022/10/20 06:20:31;;;;;;;;;;;19.00;76.50;;;;;;5030994;27;89339;-58
2022/10/20 06:22:57;;;;;;;;;;;19.00;76.70;;;;;;5037927;27;93186;-58
2022/10/20 06:25:22;;;;;;;;;;;19.10;76.50;;;;;;5047052;27;90404;-60
2022/10/20 06:27:48;;;;;;;;;;;19.00;76.30;;;;;;5050326;27;91056;-58
2022/10/20 06:30:13;;;;;;;;;;;19.00;76.20;;;;;;5027708;27;90199;-60
2022/10/20 06:32:39;;;;;;;;;;;19.00;76.00;;;;;;5059459;27;90620;-59
2022/10/20 06:35:05;;;;;;;;;;;18.90;75.90;;;;;;5035357;27;108170;-60
2022/10/20 06:37:32;;;;;;;;;;;19.00;75.80;;;;;;5041077;27;90427;-60
2022/10/20 06:39:57;;;;;;;;;;;19.00;75.70;;;;;;5036097;27;90064;-59
2022/10/20 06:42:23;;;;;;;;;;;19.00;75.70;;;;;;5035948;27;90369;-57
2022/10/20 06:44:48;;;;;;;;;;;19.00;76.00;;;;;;5035460;27;89503;-56
2022/10/20 06:47:14;;;;;;;;;;;19.10;76.30;;;;;;5025028;27;90056;-57
2022/10/20 06:49:39;;;;;;;;;;;19.10;76.50;;;;;;5043176;27;92204;-57
2022/10/20 06:52:05;;;;;;;;;;;19.10;76.50;;;;;;5040418;27;92259;-60
2022/10/20 06:54:30;;;;;;;;;;;19.20;76.70;;;;;;5035498;27;91936;-60
2022/10/20 06:56:56;;;;;;;;;;;19.20;77.60;;;;;;5033903;27;92723;-60
2022/10/20 06:59:21;;;;;;;;;;;19.20;76.90;;;;;;5046927;27;90028;-58
2022/10/20 07:01:47;;;;;;;;;;;19.30;77.10;;;;;;5038292;27;90935;-61
2022/10/20 07:04:13;;;;;;;;;;;19.30;76.90;;;;;;5023621;27;89925;-59
2022/10/20 07:06:40;;;;;;;;;;;19.30;76.70;;;;;;5038124;27;91604;-60
2022/10/20 07:09:07;;;;;;;;;;;19.20;76.30;;;;;;5032130;27;89344;-59
2022/10/20 07:11:33;;;;;;;;;;;19.20;76.20;;;;;;5019998;27;91270;-65
2022/10/20 07:13:59;;;;;;;;;;;19.30;76.40;;;;;;5038229;27;95773;-60
2022/10/20 07:16:26;;;;;;;;;;;19.30;76.30;;;;;;5032286;27;92985;-59
2022/10/20 07:18:52;;;;;;;;;;;19.30;76.20;;;;;;5029231;27;89924;-60
2022/10/20 07:21:19;;;;;;;;;;;19.40;76.10;;;;;;5025720;27;94104;-58
2022/10/20 07:23:45;;;;;;;;;;;19.00;77.00;;;;;;5026861;27;89982;-58
2022/10/20 07:26:17;;;;;;;;;;;18.50;79.90;;;;;;5006977;27;91259;-58
2022/10/20 07:28:44;;;;;;;;;;;18.10;82.00;;;;;;5038191;27;94923;-59
2022/10/20 07:31:14;;;;;;;;;;;17.80;83.70;;;;;;5034240;27;91932;-58
2022/10/20 07:33:39;;;;;;;;;;;17.80;84.00;;;;;;5022566;27;89644;-58
2022/10/20 07:36:18;;;;;;;;;;;17.90;83.80;;;;;;5029727;27;91779;-53
2022/10/20 07:38:44;;;;;;;;;;;17.80;84.40;;;;;;5027992;27;91997;-58
2022/10/20 07:41:10;;;;;;;;;;;17.60;85.40;;;;;;5026690;27;98196;-50
2022/10/20 07:43:36;;;;;;;;;;;17.60;86.00;;;;;;5036690;27;90457;-55
2022/10/20 07:46:02;;;;;;;;;;;17.60;86.00;;;;;;5023484;27;90400;-57
2022/10/20 07:48:27;;;;;;;;;;;17.60;86.10;;;;;;5027778;27;91087;-62
2022/10/20 07:50:53;;;;;;;;;;;17.70;85.90;;;;;;5034140;27;89741;-58
2022/10/20 07:53:19;;;;;;;;;;;17.80;85.60;;;;;;5029406;27;90028;-54
2022/10/20 07:55:44;;;;;;;;;;;17.90;85.20;;;;;;5031774;27;90278;-62
2022/10/20 07:58:11;;;;;;;;;;;17.70;86.10;;;;;;5040703;27;88780;-56
2022/10/20 08:00:36;;;;;;;;;;;17.70;86.70;;;;;;5025246;27;91192;-59
2022/10/20 08:03:02;;;;;;;;;;;17.70;87.10;;;;;;5040666;27;91316;-59
2022/10/20 08:05:28;;;;;;;;;;;17.80;85.90;;;;;;5041535;27;92565;-57
2022/10/20 08:07:54;;;;;;;;;;;17.80;85.90;;;;;;5045102;27;90384;-57
2022/10/20 08:10:19;;;;;;;;;;;17.70;86.70;;;;;;5049110;27;90061;-58
2022/10/20 08:12:45;;;;;;;;;;;17.70;86.80;;;;;;5044351;27;90010;-59
2022/10/20 08:15:10;;;;;;;;;;;17.70;86.90;;;;;;5041984;27;89814;-59
2022/10/20 08:17:36;;;;;;;;;;;17.70;87.40;;;;;;5037436;27;91380;-59
2022/10/20 08:20:02;;;;;;;;;;;17.70;87.20;;;;;;5042257;27;89709;-56
2022/10/20 08:22:27;;;;;;;;;;;17.80;86.90;;;;;;5036255;27;89973;-58
2022/10/20 08:24:53;;;;;;;;;;;17.70;87.10;;;;;;5041645;27;89656;-54
2022/10/20 08:27:18;;;;;;;;;;;17.70;87.40;;;;;;5048333;27;94969;-65
2022/10/20 08:29:44;;;;;;;;;;;17.70;87.60;;;;;;5050643;27;92083;-59
2022/10/20 08:32:11;;;;;;;;;;;17.70;87.70;;;;;;5038384;27;92069;-66
2022/10/20 08:34:37;;;;;;;;;;;17.70;87.90;;;;;;5037408;27;90338;-57
2022/10/20 08:37:02;;;;;;;;;;;17.70;88.40;;;;;;5031659;27;90480;-56
2022/10/20 08:39:28;;;;;;;;;;;17.60;88.80;;;;;;5031905;27;90503;-58
2022/10/20 08:41:54;;;;;;;;;;;17.60;88.80;;;;;;5022099;27;94350;-59
2022/10/20 08:44:24;;;;;;;;;;;17.70;88.60;;;;;;5036547;27;89986;-56
2022/10/20 08:46:50;;;;;;;;;;;17.80;88.40;;;;;;5033952;27;89684;-52
2022/10/20 08:49:21;;;;;;;;;;;17.80;88.60;;;;;;5027443;27;92891;-58
2022/10/20 08:51:46;;;;;;;;;;;17.80;88.60;;;;;;5011164;27;90472;-56
2022/10/20 08:54:13;;;;;;;;;;;17.70;89.30;;;;;;5024008;27;91480;-52
2022/10/20 08:56:38;;;;;;;;;;;17.70;89.70;;;;;;5028667;27;90458;-53
2022/10/20 08:59:15;;;;;;;;;;;17.80;89.50;;;;;;5025850;27;91322;-55
2022/10/20 09:01:41;;;;;;;;;;;17.90;89.40;;;;;;5027881;27;90072;-58
2022/10/20 09:04:25;;;;;;;;;;;17.80;89.60;;;;;;5043640;27;90530;-56
2022/10/20 09:06:53;;;;;;;;;;;17.90;89.80;;;;;;5046752;27;90074;-58
2022/10/20 09:09:20;;;;;;;;;;;17.90;89.90;;;;;;5037890;27;93523;-59
2022/10/20 09:11:47;;;;;;;;;;;17.90;90.10;;;;;;5045058;27;89887;-56
2022/10/20 09:14:13;;;;;;;;;;;17.90;90.20;;;;;;5042722;27;89983;-60
2022/10/20 09:16:39;;;;;;;;;;;18.00;90.10;;;;;;5042246;27;89822;-52
2022/10/20 09:19:10;;;;;;;;;;;18.00;89.70;;;;;;5041710;27;92868;-56
2022/10/20 09:21:37;;;;;;;;;;;18.00;89.80;;;;;;5043074;27;91446;-55
2022/10/20 09:24:04;;;;;;;;;;;18.10;89.80;;;;;;5036092;27;92626;-59
2022/10/20 09:26:29;;;;;;;;;;;18.10;89.70;;;;;;5042524;27;91078;-58
2022/10/20 09:29:03;;;;;;;;;;;18.00;89.80;;;;;;5040226;27;89952;-50
2022/10/20 09:31:32;;;;;;;;;;;18.00;90.10;;;;;;5037096;27;89811;-54
2022/10/20 09:33:58;;;;;;;;;;;18.10;90.00;;;;;;5043961;27;89515;-53
2022/10/20 09:36:27;;;;;;;;;;;18.10;89.40;;;;;;5033114;27;89204;-55
2022/10/20 09:38:53;;;;;;;;;;;18.10;89.80;;;;;;5015696;27;90875;-53
2022/10/20 09:41:20;;;;;;;;;;;18.00;90.00;;;;;;5023854;27;89793;-54
2022/10/20 09:43:55;;;;;;;;;;;18.10;90.00;;;;;;5029976;27;90960;-57
2022/10/20 09:46:22;;;;;;;;;;;18.10;90.10;;;;;;5031585;27;90198;-53
2022/10/20 09:48:49;;;;;;;;;;;18.10;90.10;;;;;;5025752;27;90073;-56
2022/10/20 09:51:15;;;;;;;;;;;18.10;90.40;;;;;;5023588;27;90171;-56
2022/10/20 09:53:59;;;;;;;;;;;18.20;90.00;;;;;;5032071;27;89932;-56
2022/10/20 09:56:32;;;;;;;;;;;18.30;90.00;;;;;;5036412;27;90132;-56
2022/10/20 09:58:59;;;;;;;;;;;18.30;90.40;;;;;;5029311;27;91093;-58
2022/10/20 10:01:25;;;;;;;;;;;18.40;90.20;;;;;;5036321;27;89467;-57
2022/10/20 10:03:51;;;;;;;;;;;18.40;89.40;;;;;;5028928;27;91009;-60
2022/10/20 10:06:29;;;;;;;;;;;18.40;90.00;;;;;;5032203;27;89657;-56
2022/10/20 10:08:55;;;;;;;;;;;18.50;89.90;;;;;;5032039;27;91381;-55
2022/10/20 10:11:22;;;;;;;;;;;18.50;89.00;;;;;;5031798;27;90486;-59
2022/10/20 10:13:49;;;;;;;;;;;18.70;86.70;;;;;;5037838;27;89641;-56
2022/10/20 10:16:15;;;;;;;;;;;19.00;85.50;;;;;;5047130;27;90375;-60
2022/10/20 10:19:01;;;;;;;;;;;19.20;83.80;;;;;;5044411;27;94784;-59
2022/10/20 10:21:41;;;;;;;;;;;19.30;83.00;;;;;;5044407;27;89628;-57
2022/10/20 10:24:23;;;;;;;;;;;19.50;82.40;;;;;;5044946;27;90563;-51
2022/10/20 10:26:55;;;;;;;;;;;19.60;81.90;;;;;;5050891;27;92073;-54
2022/10/20 10:29:24;;;;;;;;;;;19.60;81.50;;;;;;5043969;27;92679;-55
2022/10/20 10:32:25;;;;;;;;;;;19.50;81.20;;;;;;5049587;27;90002;-52
2022/10/20 10:34:56;;;;;;;;;;;19.50;81.10;;;;;;4943745;28;93913;-55
2022/10/20 10:37:22;;;;;;;;;;;19.50;81.00;;;;;;4950606;28;91788;-53
2022/10/20 10:39:48;;;;;;;;;;;19.60;80.90;;;;;;4944410;28;90030;-50
2022/10/20 10:42:22;;;;;;;;;;;19.60;80.80;;;;;;4960866;27;91007;-50
2022/10/20 10:44:48;;;;;;;;;;;19.60;80.60;;;;;;5038584;27;90458;-51
2022/10/20 10:47:28;;;;;;;;;;;19.60;80.40;;;;;;5033480;27;94646;-52
2022/10/20 10:50:13;;;;;;;;;;;19.60;80.20;;;;;;5021573;27;92478;-51
2022/10/20 10:52:47;;;;;;;;;;;19.60;80.10;;;;;;5031275;27;90102;-51
2022/10/20 10:55:16;;;;;;;;;;;19.60;79.90;;;;;;5029674;27;89658;-51
2022/10/20 10:57:44;;;;;;;;;;;19.60;79.70;;;;;;5034562;27;91885;-52
2022/10/20 11:00:13;;;;;;;;;;;19.70;79.60;;;;;;5032032;27;91378;-51
2022/10/20 11:02:54;;;;;;;;;;;19.70;79.50;;;;;;5037221;27;91212;-54
2022/10/20 11:05:19;;;;;;;;;;;19.70;79.40;;;;;;5035307;27;90325;-52
2022/10/20 11:07:55;;;;;;;;;;;19.70;79.20;;;;;;5036422;27;92583;-53
2022/10/20 11:10:35;;;;;;;;;;;19.70;79.20;;;;;;5026584;27;96356;-53
2022/10/20 11:13:19;;;;;;;;;;;19.70;79.00;;;;;;5033465;27;90059;-50
2022/10/20 11:16:03;;;;;;;;;;;19.70;78.90;;;;;;5031844;27;96529;-54
2022/10/20 11:18:43;;;;;;;;;;;19.70;78.90;;;;;;5027854;27;89894;-52
2022/10/20 11:21:12;;;;;;;;;;;19.70;78.80;;;;;;5035627;27;90690;-51
2022/10/20 11:23:49;;;;;;;;;;;19.70;78.70;;;;;;5033182;27;90257;-54
2022/10/20 11:26:18;;;;;;;;;;;19.70;78.70;;;;;;5035567;27;90992;-54
2022/10/20 11:28:45;;;;;;;;;;;19.70;78.60;;;;;;5035485;27;89604;-54
2022/10/20 11:31:34;;;;;;;;;;;19.70;78.60;;;;;;5031464;27;90145;-50
2022/10/20 11:34:05;;;;;;;;;;;19.70;78.50;;;;;;5027948;27;90243;-53
2022/10/20 11:36:33;;;;;;;;;;;19.70;78.40;;;;;;5032823;27;90014;-53
2022/10/20 11:38:59;;;;;;;;;;;19.70;78.40;;;;;;5024682;27;94007;-53
2022/10/20 11:41:25;;;;;;;;;;;19.70;78.30;;;;;;5029037;27;89891;-52
2022/10/20 11:44:09;;;;;;;;;;;19.70;78.30;;;;;;5026506;27;92491;-53
2022/10/20 11:46:55;;;;;;;;;;;19.70;78.20;;;;;;5031011;27;90287;-52
2022/10/20 11:49:20;;;;;;;;;;;19.70;78.10;;;;;;5034247;27;95332;-53
2022/10/20 11:52:04;;;;;;;;;;;19.70;78.00;;;;;;5024880;27;95734;-55
2022/10/20 11:54:39;;;;;;;;;;;19.80;78.10;;;;;;5033601;27;89822;-51
2022/10/20 11:57:13;;;;;;;;;;;19.70;78.00;;;;;;5033490;27;96094;-54
2022/10/20 11:59:47;;;;;;;;;;;19.80;77.90;;;;;;5030347;27;91780;-58
2022/10/20 12:02:31;;;;;;;;;;;19.70;77.80;;;;;;5033503;27;90013;-54
2022/10/20 12:05:02;;;;;;;;;;;19.80;77.80;;;;;;5034494;27;90076;-54
2022/10/20 12:07:43;;;;;;;;;;;19.80;77.80;;;;;;5031848;27;91487;-53
2022/10/20 12:10:14;;;;;;;;;;;19.80;77.80;;;;;;5031684;27;91146;-54
2022/10/20 12:12:49;;;;;;;;;;;19.80;77.80;;;;;;5030566;27;89522;-56
2022/10/20 12:15:20;;;;;;;;;;;19.90;78.20;;;;;;5038750;27;90468;-57
2022/10/20 12:17:46;;;;;;;;;;;19.90;78.20;;;;;;5046616;27;90685;-58
2022/10/20 12:20:20;;;;;;;;;;;20.00;78.40;;;;;;5039005;27;94263;-58
2022/10/20 12:22:47;;;;;;;;;;;20.00;78.50;;;;;;5045861;27;90357;-57
2022/10/20 12:25:24;;;;;;;;;;;20.00;78.50;;;;;;5037820;27;92425;-56
2022/10/20 12:28:10;;;;;;;;;;;20.00;78.60;;;;;;5035549;27;93020;-55
2022/10/20 12:30:38;;;;;;;;;;;20.10;79.30;;;;;;5025399;27;89648;-53
2022/10/20 12:33:10;;;;;;;;;;;20.10;78.70;;;;;;5049330;27;90857;-52
2022/10/20 12:35:54;;;;;;;;;;;20.20;78.60;;;;;;5032653;27;88680;-52
2022/10/20 12:38:21;;;;;;;;;;;20.20;78.60;;;;;;5039755;27;91726;-53
2022/10/20 12:40:49;;;;;;;;;;;20.10;78.70;;;;;;5042832;27;89828;-53
2022/10/20 12:43:31;;;;;;;;;;;20.20;78.60;;;;;;5038994;27;91412;-57
2022/10/20 12:46:08;;;;;;;;;;;20.20;78.50;;;;;;5023643;27;89993;-54
2022/10/20 12:48:35;;;;;;;;;;;20.30;78.70;;;;;;5036473;27;92059;-53
2022/10/20 12:51:02;;;;;;;;;;;20.20;78.50;;;;;;5033386;27;89854;-54
2022/10/20 12:53:29;;;;;;;;;;;20.30;78.60;;;;;;5023676;27;90685;-57
2022/10/20 12:55:58;;;;;;;;;;;20.30;78.40;;;;;;5028578;27;89706;-59
2022/10/20 12:58:24;;;;;;;;;;;20.40;78.60;;;;;;5036866;27;89554;-59
2022/10/20 13:00:49;;;;;;;;;;;20.40;78.70;;;;;;5043347;27;91533;-52
2022/10/20 13:03:47;;;;;;;;;;;20.40;78.60;;;;;;5034290;27;92382;-56
2022/10/20 13:06:21;;;;;;;;;;;20.40;78.50;;;;;;4969585;27;91453;-55
2022/10/20 13:09:02;;;;;;;;;;;20.30;77.80;;;;;;5020888;27;92469;-59
2022/10/20 13:11:32;;;;;;;;;;;20.30;78.20;;;;;;5028138;27;93164;-54
2022/10/20 13:14:03;;;;;;;;;;;20.30;78.00;;;;;;5031773;27;91192;-55
2022/10/20 13:16:29;;;;;;;;;;;20.30;78.00;;;;;;5012708;27;90085;-55
2022/10/20 13:18:55;;;;;;;;;;;20.40;78.00;;;;;;5029678;27;91554;-52
2022/10/20 13:21:23;;;;;;;;;;;20.50;78.00;;;;;;5035205;27;90380;-56
2022/10/20 13:23:58;;;;;;;;;;;20.50;78.00;;;;;;5033927;27;90537;-54
2022/10/20 13:26:28;;;;;;;;;;;20.50;78.00;;;;;;5034302;27;89883;-53
2022/10/20 13:28:55;;;;;;;;;;;20.50;78.00;;;;;;5031376;27;93004;-53
2022/10/20 13:31:38;;;;;;;;;;;20.60;78.20;;;;;;5019823;27;91365;-56
2022/10/20 13:34:04;;;;;;;;;;;20.50;78.10;;;;;;5035123;27;91119;-58
2022/10/20 13:36:36;;;;;;;;;;;20.40;78.10;;;;;;5035889;27;92131;-52
2022/10/20 13:39:10;;;;;;;;;;;20.40;78.10;;;;;;5037680;27;90093;-54
2022/10/20 13:41:43;;;;;;;;;;;20.40;78.10;;;;;;5033335;27;92166;-57
2022/10/20 13:44:21;;;;;;;;;;;20.50;77.90;;;;;;5024156;27;96585;-57
2022/10/20 13:46:56;;;;;;;;;;;20.60;77.70;;;;;;5035782;27;90785;-51
2022/10/20 13:49:33;;;;;;;;;;;20.60;77.80;;;;;;5028746;27;91403;-52
2022/10/20 13:52:02;;;;;;;;;;;20.60;77.80;;;;;;5036658;27;89887;-51
2022/10/20 13:54:29;;;;;;;;;;;20.60;77.80;;;;;;5032623;27;94700;-55
2022/10/20 13:56:55;;;;;;;;;;;20.70;78.00;;;;;;5039643;27;89936;-53
2022/10/20 13:59:22;;;;;;;;;;;20.70;78.10;;;;;;5026128;27;96702;-59
2022/10/20 14:02:20;;;;;;;;;;;20.70;78.00;;;;;;5028036;27;89455;-58
2022/10/20 14:04:45;;;;;;;;;;;20.80;78.10;;;;;;5032253;27;89695;-59
2022/10/20 14:07:12;;;;;;;;;;;20.70;78.00;;;;;;5039570;27;89871;-59
2022/10/20 14:09:38;;;;;;;;;;;20.80;78.10;;;;;;5022273;27;90237;-57
2022/10/20 14:12:06;;;;;;;;;;;20.80;78.10;;;;;;5027256;27;89602;-58
2022/10/20 14:14:32;;;;;;;;;;;20.80;77.70;;;;;;5050775;27;90125;-55
2022/10/20 14:17:02;;;;;;;;;;;20.80;77.70;;;;;;5044124;27;88866;-57
2022/10/20 14:19:29;;;;;;;;;;;20.80;77.70;;;;;;5038617;27;89529;-56
2022/10/20 14:22:10;;;;;;;;;;;20.70;77.60;;;;;;5046790;27;89775;-56
2022/10/20 14:24:38;;;;;;;;;;;20.70;77.50;;;;;;5036367;27;92093;-55